Postojna, Slovenia
Current Conditions -  °F | °C
As of 8:55 AM on Sunday 23 Nov 2014 (Local Time) from LIVT Reporting Station
Clear Clear  
Wind Chill: 45°   Ceiling: Unl
Heat Index: 48°   Visibility: 6mi
Dew Point: 45°   Wind: 8mph
Humidity: 87%   Direction: 40°NE
Pressure: 30.3"   Gusts: NA
Location:  45.78°N, 14.22°E
Report Text: LIVT 230755Z 04007KT CAVOK 09/07 Q1026 RMK SKC QUK 1 QUL 0 VIS MAR 20 KM VIS MIN 9999
Loading
Personal Weather Stations






























Interactive Weather Map New forecast layout! Learn more

10-Day Weather Forecast

Advertisements
Track Severe Weather on mobile